Time,TemperatureF,DewpointF,PressureIn,WindDirection,WindDirectionDegrees,WindSpeedMPH,WindSpeedGustMPH,Humidity,HourlyPrecipIn,Conditions,Clouds,dailyrainin,SoftwareType,DateUTC
2013-09-17 00:05:00,59.8,45.0,31.50,NNW,328,17.0,22.0,59,0.00,,,0.04,weatherlink.com 1.10,2013-09-17 06:05:00,
2013-09-17 00:20:00,59.8,45.0,31.50,NW,311,17.0,23.0,59,0.00,,,0.04,weatherlink.com 1.10,2013-09-17 06:20:00,
2013-09-17 00:35:00,59.7,45.0,31.51,NW,315,17.0,24.0,59,0.00,,,0.04,weatherlink.com 1.10,2013-09-17 06:35:00,
2013-09-17 00:50:00,59.2,45.0,31.51,NW,304,11.0,21.0,59,0.00,,,0.00,weatherlink.com 1.10,2013-09-17 06:50:00,
2013-09-17 01:05:00,59.0,44.0,31.51,NW,325,16.0,24.0,59,0.00,,,0.00,weatherlink.com 1.10,2013-09-17 07:05:00,
2013-09-17 01:20:00,58.7,44.0,31.52,NW,317,19.0,22.0,59,0.00,,,0.00,weatherlink.com 1.10,2013-09-17 07:20:00,
2013-09-17 01:35:00,58.5,44.0,31.51,NW,323,12.0,23.0,59,0.00,,,0.00,weatherlink.com 1.10,2013-09-17 07:35:00,
2013-09-17 01:50:00,58.0,44.0,31.51,NW,319,16.0,23.0,61,0.00,,,0.00,weatherlink.com 1.10,2013-09-17 07:50:00,
2013-09-17 02:05:00,57.8,45.0,31.52,NW,309,14.0,22.0,62,0.00,,,0.00,weatherlink.com 1.10,2013-09-17 08:05:00,
2013-09-17 02:20:00,57.7,44.0,31.52,NW,305,15.0,21.0,61,0.00,,,0.00,weatherlink.com 1.10,2013-09-17 08:20:00,
2013-09-17 02:35:00,57.8,44.0,31.52,NNW,329,16.0,21.0,61,0.00,,,0.00,weatherlink.com 1.10,2013-09-17 08:35:00,
2013-09-17 02:50:00,57.3,44.0,31.52,NNW,343,17.0,20.0,62,0.00,,,0.00,weatherlink.com 1.10,2013-09-17 08:50:00,
2013-09-17 03:05:00,57.4,44.0,31.52,NNW,327,18.0,22.0,62,0.00,,,0.00,weatherlink.com 1.10,2013-09-17 09:05:00,
2013-09-17 03:20:00,57.3,44.0,31.52,NNW,347,18.0,20.0,62,0.00,,,0.00,weatherlink.com 1.10,2013-09-17 09:20:00,
2013-09-17 03:35:00,56.8,44.0,31.52,NW,323,15.0,19.0,63,0.00,,,0.00,weatherlink.com 1.10,2013-09-17 09:35:00,
2013-09-17 03:50:00,57.0,44.0,31.52,NNW,344,15.0,19.0,62,0.00,,,0.00,weatherlink.com 1.10,2013-09-17 09:50:00,
2013-09-17 04:05:00,57.0,44.0,31.52,North,350,2.0,17.0,62,0.00,,,0.00,weatherlink.com 1.10,2013-09-17 10:05:00,
2013-09-17 04:20:00,56.2,44.0,31.52,ESE,109,1.0,6.0,64,0.00,,,0.00,weatherlink.com 1.10,2013-09-17 10:20:00,
2013-09-17 04:35:00,55.8,44.0,31.52,ENE,67,0.0,4.0,64,0.00,,,0.00,weatherlink.com 1.10,2013-09-17 10:35:00,
2013-09-17 04:50:00,55.4,44.0,31.52,East,79,0.0,2.0,65,0.00,,,0.00,weatherlink.com 1.10,2013-09-17 10:50:00,
2013-09-17 05:05:00,55.6,43.0,31.52,ENE,78,0.0,2.0,64,0.00,,,0.00,weatherlink.com 1.10,2013-09-17 11:05:00,
2013-09-17 05:20:00,55.7,44.0,31.51,ENE,77,0.0,4.0,64,0.00,,,0.00,weatherlink.com 1.10,2013-09-17 11:20:00,
2013-09-17 05:35:00,55.9,43.0,31.51,NNE,24,1.0,3.0,62,0.00,,,0.00,weatherlink.com 1.10,2013-09-17 11:35:00,
2013-09-17 05:50:00,55.6,43.0,31.51,NNE,26,0.0,1.0,63,0.00,,,0.00,weatherlink.com 1.10,2013-09-17 11:50:00,
2013-09-17 06:05:00,54.8,44.0,31.51,East,95,2.0,3.0,66,0.00,,,0.00,weatherlink.com 1.10,2013-09-17 12:05:00,
2013-09-17 06:20:00,54.5,44.0,31.51,East,96,0.0,3.0,67,0.00,,,0.00,weatherlink.com 1.10,2013-09-17 12:20:00,
2013-09-17 06:36:00,53.5,44.0,31.51,ESE,110,2.0,4.0,69,0.00,,,0.00,weatherlink.com 1.10,2013-09-17 12:36:00,
2013-09-17 06:51:00,53.2,43.0,31.51,NNE,13,4.0,5.0,68,0.00,,,0.00,weatherlink.com 1.10,2013-09-17 12:51:00,
2013-09-17 07:06:00,53.0,43.0,31.52,North,5,0.0,3.0,69,0.00,,,0.00,weatherlink.com 1.10,2013-09-17 13:06:00,
2013-09-17 07:21:00,53.0,43.0,31.51,NNE,23,0.0,0.0,70,0.00,,,0.00,weatherlink.com 1.10,2013-09-17 13:21:00,
2013-09-17 07:36:00,52.3,43.0,31.51,NNE,20,0.0,1.0,71,0.00,,,0.00,weatherlink.com 1.10,2013-09-17 13:36:00,
2013-09-17 07:51:00,52.0,43.0,31.51,NNE,22,0.0,0.0,72,0.00,,,0.00,weatherlink.com 1.10,2013-09-17 13:51:00,
2013-09-17 08:06:00,51.9,43.0,31.51,NNE,22,0.0,1.0,72,0.00,,,0.00,weatherlink.com 1.10,2013-09-17 14:06:00,
2013-09-17 08:21:00,52.6,44.0,31.51,NNE,22,0.0,0.0,72,0.00,,,0.00,weatherlink.com 1.10,2013-09-17 14:21:00,
2013-09-17 08:36:00,53.0,43.0,31.52,SE,128,3.0,5.0,70,0.00,,,0.00,weatherlink.com 1.10,2013-09-17 14:36:00,
2013-09-17 08:51:00,50.7,43.0,31.52,East,100,2.0,5.0,76,0.00,,,0.00,weatherlink.com 1.10,2013-09-17 14:51:00,
2013-09-17 09:06:00,51.4,44.0,31.52,East,89,5.0,7.0,75,0.00,,,0.00,weatherlink.com 1.10,2013-09-17 15:06:00,
2013-09-17 09:21:00,50.4,43.0,31.51,East,82,2.0,4.0,77,0.00,,,0.00,weatherlink.com 1.10,2013-09-17 15:21:00,
2013-09-17 09:36:00,52.5,44.0,31.51,ENE,74,5.0,8.0,74,0.00,,,0.00,weatherlink.com 1.10,2013-09-17 15:36:00,
2013-09-17 09:51:00,55.8,45.0,31.50,ESE,117,5.0,8.0,67,0.00,,,0.00,weatherlink.com 1.10,2013-09-17 15:51:00,
2013-09-17 10:06:00,54.0,45.0,31.49,SSE,156,0.0,7.0,71,0.00,,,0.00,weatherlink.com 1.10,2013-09-17 16:06:00,
2013-09-17 10:21:00,54.2,45.0,31.48,SSE,157,0.0,1.0,72,0.00,,,0.00,weatherlink.com 1.10,2013-09-17 16:21:00,
2013-09-17 10:36:00,52.6,45.0,31.48,West,276,0.0,4.0,76,0.00,,,0.00,weatherlink.com 1.10,2013-09-17 16:36:00,
2013-09-17 10:51:00,53.0,46.0,31.48,WNW,290,0.0,4.0,77,0.00,,,0.00,weatherlink.com 1.10,2013-09-17 16:51:00,
2013-09-17 11:06:00,53.7,46.0,31.50,SE,134,4.0,5.0,74,0.00,,,0.00,weatherlink.com 1.10,2013-09-17 17:06:00,
2013-09-17 11:22:00,52.0,45.0,31.51,ESE,119,8.0,9.0,76,0.00,,,0.00,weatherlink.com 1.10,2013-09-17 17:22:00,
2013-09-17 11:36:00,51.2,46.0,31.46,East,80,7.0,14.0,81,0.00,,,0.00,weatherlink.com 1.10,2013-09-17 17:36:00,
2013-09-17 11:51:00,53.5,46.0,31.44,ENE,65,13.0,14.0,77,0.00,,,0.00,weatherlink.com 1.10,2013-09-17 17:51:00,
2013-09-17 12:06:00,52.1,44.0,31.46,West,263,12.0,18.0,74,0.00,,,0.00,weatherlink.com 1.10,2013-09-17 18:06:00,
2013-09-17 12:21:00,48.9,46.0,31.46,WSW,238,0.0,10.0,88,0.00,,,0.00,weatherlink.com 1.10,2013-09-17 18:21:00,
2013-09-17 12:36:00,49.5,46.0,31.46,SE,130,0.0,6.0,88,0.00,,,0.00,weatherlink.com 1.10,2013-09-17 18:36:00,
2013-09-17 12:51:00,50.2,46.0,31.47,ESE,109,0.0,5.0,85,0.00,,,0.00,weatherlink.com 1.10,2013-09-17 18:51:00,
2013-09-17 13:06:00,51.6,46.0,31.47,ESE,111,0.0,5.0,82,0.01,,,0.01,weatherlink.com 1.10,2013-09-17 19:06:00,
2013-09-17 13:21:00,52.9,47.0,31.46,East,94,2.0,7.0,79,0.01,,,0.01,weatherlink.com 1.10,2013-09-17 19:21:00,
2013-09-17 13:36:00,53.5,47.0,31.44,East,96,10.0,13.0,79,0.01,,,0.01,weatherlink.com 1.10,2013-09-17 19:36:00,
2013-09-17 13:51:00,53.5,47.0,31.45,ESE,108,13.0,16.0,78,0.01,,,0.01,weatherlink.com 1.10,2013-09-17 19:51:00,
2013-09-17 14:06:00,53.1,47.0,31.42,NNE,33,6.0,16.0,79,0.00,,,0.01,weatherlink.com 1.10,2013-09-17 20:06:00,
2013-09-17 14:21:00,56.7,49.0,31.43,SSE,157,10.0,19.0,74,0.00,,,0.01,weatherlink.com 1.10,2013-09-17 20:21:00,
2013-09-17 14:36:00,56.2,47.0,31.40,SSE,156,5.0,11.0,71,0.00,,,0.01,weatherlink.com 1.10,2013-09-17 20:36:00,
2013-09-17 14:51:00,56.7,47.0,31.40,SE,128,5.0,9.0,71,0.00,,,0.01,weatherlink.com 1.10,2013-09-17 20:51:00,
2013-09-17 15:07:00,59.1,48.0,31.38,SE,140,5.0,11.0,67,0.00,,,0.01,weatherlink.com 1.10,2013-09-17 21:07:00,
2013-09-17 15:22:00,60.2,48.0,31.36,SSE,151,8.0,16.0,64,0.00,,,0.01,weatherlink.com 1.10,2013-09-17 21:22:00,
2013-09-17 15:37:00,60.4,48.0,31.36,ESE,107,7.0,16.0,64,0.00,,,0.01,weatherlink.com 1.10,2013-09-17 21:37:00,
2013-09-17 15:52:00,61.3,49.0,31.36,SE,128,11.0,15.0,64,0.00,,,0.01,weatherlink.com 1.10,2013-09-17 21:52:00,
2013-09-17 16:07:00,61.3,48.0,31.36,ESE,119,10.0,12.0,61,0.00,,,0.01,weatherlink.com 1.10,2013-09-17 22:07:00,
2013-09-17 16:22:00,62.4,48.0,31.36,South,175,2.0,12.0,59,0.00,,,0.01,weatherlink.com 1.10,2013-09-17 22:22:00,
2013-09-17 16:37:00,62.1,48.0,31.35,SSE,148,12.0,13.0,60,0.00,,,0.01,weatherlink.com 1.10,2013-09-17 22:37:00,
2013-09-17 16:52:00,60.3,48.0,31.36,SE,133,6.0,12.0,64,0.00,,,0.01,weatherlink.com 1.10,2013-09-17 22:52:00,
2013-09-17 17:07:00,59.2,48.0,31.37,SSE,148,10.0,13.0,67,0.00,,,0.01,weatherlink.com 1.10,2013-09-17 23:07:00,
2013-09-17 17:22:00,58.3,48.0,31.37,SE,139,14.0,14.0,68,0.00,,,0.01,weatherlink.com 1.10,2013-09-17 23:22:00,
2013-09-17 17:37:00,57.7,48.0,31.37,SE,136,6.0,14.0,69,0.00,,,0.01,weatherlink.com 1.10,2013-09-17 23:37:00,
2013-09-17 17:52:00,57.3,47.0,31.30,East,81,16.0,17.0,69,0.00,,,0.01,weatherlink.com 1.10,2013-09-17 23:52:00,
2013-09-17 18:07:00,60.6,42.0,31.30,East,94,5.0,14.0,51,0.00,,,0.01,weatherlink.com 1.10,2013-09-18 00:07:00,
2013-09-17 18:22:00,62.2,43.0,31.32,East,98,8.0,12.0,49,0.00,,,0.01,weatherlink.com 1.10,2013-09-18 00:22:00,
2013-09-17 18:37:00,62.1,43.0,31.32,South,170,4.0,10.0,49,0.00,,,0.01,weatherlink.com 1.10,2013-09-18 00:37:00,
2013-09-17 18:52:00,58.7,47.0,31.32,SE,135,2.0,7.0,66,0.00,,,0.01,weatherlink.com 1.10,2013-09-18 00:52:00,
2013-09-17 19:07:00,57.5,47.0,31.32,SE,133,4.0,4.0,68,0.00,,,0.01,weatherlink.com 1.10,2013-09-18 01:07:00,
2013-09-17 19:22:00,56.9,47.0,31.33,ESE,121,2.0,7.0,70,0.00,,,0.01,weatherlink.com 1.10,2013-09-18 01:22:00,
2013-09-17 19:37:00,57.1,47.0,31.31,East,86,5.0,14.0,68,0.00,,,0.01,weatherlink.com 1.10,2013-09-18 01:37:00,
2013-09-17 19:52:00,57.0,46.0,31.34,East,101,5.0,11.0,68,0.00,,,0.01,weatherlink.com 1.10,2013-09-18 01:52:00,
2013-09-17 20:07:00,56.6,46.0,31.34,SE,131,8.0,10.0,69,0.00,,,0.01,weatherlink.com 1.10,2013-09-18 02:07:00,
2013-09-17 20:22:00,56.5,47.0,31.36,ESE,119,5.0,10.0,70,0.00,,,0.01,weatherlink.com 1.10,2013-09-18 02:22:00,
2013-09-17 20:37:00,56.6,46.0,31.36,ESE,117,2.0,8.0,69,0.00,,,0.01,weatherlink.com 1.10,2013-09-18 02:37:00,
2013-09-17 20:52:00,56.6,47.0,31.37,SE,144,0.0,2.0,70,0.00,,,0.01,weatherlink.com 1.10,2013-09-18 02:52:00,
2013-09-17 21:07:00,56.7,45.0,31.37,NNE,24,3.0,7.0,66,0.00,,,0.01,weatherlink.com 1.10,2013-09-18 03:07:00,
2013-09-17 21:22:00,56.9,46.0,31.38,East,88,1.0,5.0,67,0.00,,,0.01,weatherlink.com 1.10,2013-09-18 03:22:00,
2013-09-17 21:37:00,56.9,46.0,31.38,SE,145,0.0,3.0,66,0.00,,,0.01,weatherlink.com 1.10,2013-09-18 03:37:00,
2013-09-17 21:52:00,55.9,46.0,31.39,West,261,3.0,5.0,70,0.00,,,0.01,weatherlink.com 1.10,2013-09-18 03:52:00,
2013-09-17 22:07:00,55.1,48.0,31.40,SSE,162,3.0,10.0,76,0.00,,,0.01,weatherlink.com 1.10,2013-09-18 04:07:00,
2013-09-17 22:22:00,53.1,48.0,31.40,East,82,1.0,5.0,82,0.00,,,0.01,weatherlink.com 1.10,2013-09-18 04:22:00,
2013-09-17 22:37:00,53.3,48.0,31.41,South,176,0.0,3.0,81,0.00,,,0.01,weatherlink.com 1.10,2013-09-18 04:37:00,
2013-09-17 22:52:00,53.8,48.0,31.42,SW,217,1.0,3.0,80,0.00,,,0.01,weatherlink.com 1.10,2013-09-18 04:52:00,
2013-09-17 23:07:00,53.3,48.0,31.42,NW,325,13.0,15.0,82,0.00,,,0.01,weatherlink.com 1.10,2013-09-18 05:07:00,
2013-09-17 23:22:00,52.5,47.0,31.43,NNW,327,6.0,11.0,82,0.00,,,0.01,weatherlink.com 1.10,2013-09-18 05:22:00,
2013-09-17 23:37:00,52.7,47.0,31.43,NNW,337,1.0,10.0,80,0.00,,,0.01,weatherlink.com 1.10,2013-09-18 05:37:00,
2013-09-17 23:52:00,51.7,45.0,31.45,NW,321,17.0,21.0,77,0.00,,,0.01,weatherlink.com 1.10,2013-09-18 05:52:00,